Time;durP1;ratioP1;P1;durP2;ratioP2;P2;SDS_P1;SDS_P2;PMS_P1;PMS_P2;Temp;Humidity;BMP_temperature;BMP_pressure;BME280_temperature;BME280_humidity;BME280_pressure;Samples;Min_cycle;Max_cycle;Signal;HPM_P1;HPM_P2
2023/03/18 00:01:51;;;;;;;22.30;9.30;;;;;;;3.74;54.99;99328.66;108134;1306;22214;-41
2023/03/18 00:04:17;;;;;;;16.40;8.10;;;;;;;3.70;55.11;99329.83;108157;1306;23173;-42
2023/03/18 00:06:42;;;;;;;19.10;8.50;;;;;;;3.70;54.86;99329.13;108114;1306;22385;-42
2023/03/18 00:09:08;;;;;;;13.50;7.70;;;;;;;3.66;55.08;99329.20;108119;1306;22191;-42
2023/03/18 00:11:33;;;;;;;18.40;7.90;;;;;;;3.67;55.07;99331.64;108122;1306;22216;-42
2023/03/18 00:13:59;;;;;;;18.00;8.40;;;;;;;3.64;55.11;99329.44;108112;1306;22251;-42
2023/03/18 00:16:25;;;;;;;18.20;7.50;;;;;;;3.65;55.21;99329.95;108125;1306;22259;-42
2023/03/18 00:18:51;;;;;;;16.00;8.20;;;;;;;3.63;55.43;99329.48;108135;1306;22855;-42
2023/03/18 00:21:17;;;;;;;17.10;7.50;;;;;;;3.60;55.66;99334.58;107910;1306;22272;-42
2023/03/18 00:23:43;;;;;;;17.50;8.00;;;;;;;3.59;55.67;99337.71;108133;1306;22790;-43
2023/03/18 00:26:08;;;;;;;16.30;7.90;;;;;;;3.57;55.48;99335.87;108110;1306;22358;-43
2023/03/18 00:28:35;;;;;;;17.90;7.90;;;;;;;3.55;55.55;99335.24;108118;1306;22319;-43
2023/03/18 00:31:07;;;;;;;17.60;8.60;;;;;;;3.53;55.75;99335.63;108154;1306;22270;-46
2023/03/18 00:33:35;;;;;;;18.10;7.90;;;;;;;3.48;56.12;99333.34;108151;1306;22212;-42
2023/03/18 00:36:00;;;;;;;15.30;7.10;;;;;;;3.50;55.94;99334.14;108130;1306;23149;-43
2023/03/18 00:38:25;;;;;;;16.90;7.20;;;;;;;3.46;56.20;99333.90;108133;1306;22261;-42
2023/03/18 00:41:03;;;;;;;17.70;7.30;;;;;;;3.42;56.35;99328.79;108098;1306;22994;-42
2023/03/18 00:43:32;;;;;;;;;;;;;;;3.39;56.65;99328.00;108145;1306;22464;-42
2023/03/18 00:45:59;;;;;;;15.30;7.50;;;;;;;3.36;56.58;99324.79;108162;1305;22311;-43
2023/03/18 00:48:25;;;;;;;17.70;7.40;;;;;;;3.37;56.61;99320.11;108128;1306;22235;-42
2023/03/18 00:50:51;;;;;;;17.70;6.90;;;;;;;3.40;56.76;99314.13;108151;1306;22198;-42
2023/03/18 00:53:16;;;;;;;12.10;6.70;;;;;;;3.36;56.87;99307.80;108134;1306;22391;-42
2023/03/18 00:55:42;;;;;;;16.20;6.90;;;;;;;3.38;56.78;99307.40;108159;1305;22239;-42
2023/03/18 00:58:09;;;;;;;13.90;6.70;;;;;;;3.34;56.78;99300.77;108118;1306;22934;-42
2023/03/18 01:00:36;;;;;;;17.20;7.10;;;;;;;3.34;56.94;99295.92;108138;1306;22966;-42
2023/03/18 01:03:03;;;;;;;;;;;;;;;3.31;56.82;99289.91;108156;1306;22443;-43
2023/03/18 01:05:30;;;;;;;18.40;7.80;;;;;;;3.25;56.98;99288.50;108138;1306;22294;-42
2023/03/18 01:07:56;;;;;;;19.00;8.20;;;;;;;3.27;56.66;99287.08;108157;1306;23094;-42
2023/03/18 01:10:22;;;;;;;13.20;7.10;;;;;;;3.28;56.57;99286.00;108159;1305;22520;-43
2023/03/18 01:12:47;;;;;;;18.20;7.10;;;;;;;3.28;56.29;99280.11;108155;1306;22249;-42
2023/03/18 01:15:16;;;;;;;16.60;7.50;;;;;;;3.24;56.71;99274.86;108129;1306;22455;-43
2023/03/18 01:17:42;;;;;;;21.70;8.20;;;;;;;3.22;56.87;99277.50;108164;1306;22236;-42
2023/03/18 01:20:10;;;;;;;15.30;7.40;;;;;;;3.21;56.81;99274.05;108140;1306;22240;-42
2023/03/18 01:22:36;;;;;;;18.10;7.30;;;;;;;3.21;56.67;99275.64;108140;1306;22251;-43
2023/03/18 01:25:02;;;;;;;14.30;6.60;;;;;;;3.19;56.63;99270.10;108143;1306;23293;-42
2023/03/18 01:27:27;;;;;;;11.10;6.30;;;;;;;3.20;56.63;99268.37;107928;1306;22247;-42
2023/03/18 01:29:53;;;;;;;16.30;6.10;;;;;;;3.16;56.82;99267.27;108127;1306;22451;-42
2023/03/18 01:32:18;;;;;;;12.00;6.20;;;;;;;3.12;56.98;99264.08;108119;1306;22234;-42
2023/03/18 01:34:44;;;;;;;12.40;6.20;;;;;;;3.10;57.01;99267.60;108123;1306;22236;-42
2023/03/18 01:37:10;;;;;;;17.40;6.30;;;;;;;3.07;57.19;99263.49;108102;1306;22392;-42
2023/03/18 01:39:35;;;;;;;12.30;6.20;;;;;;;3.06;57.30;99264.05;108123;1306;22246;-42
2023/03/18 01:42:02;;;;;;;17.20;6.60;;;;;;;3.05;57.11;99263.54;108126;1306;22256;-43
2023/03/18 01:44:28;;;;;;;16.50;7.10;;;;;;;3.04;57.21;99264.61;108123;1306;22975;-43
2023/03/18 01:46:53;;;;;;;11.50;5.90;;;;;;;3.02;57.36;99264.48;108107;1305;22928;-42
2023/03/18 01:49:23;;;;;;;15.00;7.10;;;;;;;3.00;57.32;99269.20;108119;1306;22169;-42
2023/03/18 01:51:56;;;;;;;14.60;6.90;;;;;;;2.97;57.57;99270.16;108109;1306;22253;-43
2023/03/18 01:54:23;;;;;;;16.40;8.00;;;;;;;3.01;57.36;99270.06;108113;1306;23042;-42
2023/03/18 01:56:50;;;;;;;26.20;10.70;;;;;;;3.00;57.44;99271.45;108127;1306;22647;-42
2023/03/18 01:59:18;;;;;;;19.00;8.70;;;;;;;2.90;57.76;99269.96;108124;1306;22201;-48
2023/03/18 02:02:13;;;;;;;26.10;12.00;;;;;;;2.85;57.96;99270.64;108122;1306;22424;-43
2023/03/18 02:04:47;;;;;;;20.90;10.70;;;;;;;2.85;57.95;99269.41;108104;1306;22877;-42
2023/03/18 02:07:22;;;;;;;19.60;9.40;;;;;;;2.88;57.78;99270.02;108131;1306;22387;-42
2023/03/18 02:09:49;;;;;;;17.10;9.10;;;;;;;2.87;57.96;99263.98;108110;1306;22207;-42
2023/03/18 02:12:21;;;;;;;16.00;6.80;;;;;;;2.86;57.89;99265.56;108109;1306;22404;-42
2023/03/18 02:14:47;;;;;;;18.30;7.20;;;;;;;2.85;58.01;99267.86;108118;1306;23199;-47
2023/03/18 02:17:18;;;;;;;11.50;6.10;;;;;;;2.83;58.09;99270.33;108127;1305;22240;-42
2023/03/18 02:19:59;;;;;;;14.40;6.50;;;;;;;2.83;57.99;99265.13;108085;1306;22205;-42
2023/03/18 02:22:46;;;;;;;14.40;6.10;;;;;;;2.77;57.96;99265.09;108132;1306;23108;-42
2023/03/18 02:25:42;;;;;;;20.80;9.50;;;;;;;2.77;58.08;99260.24;108114;1306;22255;-43
2023/03/18 02:28:11;;;;;;;24.90;9.60;;;;;;;2.77;58.11;99259.90;107343;1313;22259;-42
2023/03/18 02:30:43;;;;;;;21.90;7.70;;;;;;;2.76;57.97;99259.06;107362;1313;22237;-42
2023/03/18 02:33:10;;;;;;;14.80;6.40;;;;;;;2.74;57.83;99257.21;107373;1313;22264;-43
2023/03/18 02:35:37;;;;;;;15.60;6.50;;;;;;;2.73;57.89;99257.41;107351;1313;23208;-43
2023/03/18 02:38:03;;;;;;;13.70;6.40;;;;;;;2.70;57.83;99260.08;107367;1313;23249;-42
2023/03/18 02:43:45;;;;;;;11.70;5.80;;;;;;;2.76;57.43;99257.51;106898;1302;544860;-42
2023/03/18 02:46:42;;;;;;;14.70;6.70;;;;;;;2.71;57.57;99251.75;107677;1310;23159;-42
2023/03/18 02:49:08;;;;;;;13.50;6.80;;;;;;;2.69;57.52;99250.40;107691;1310;22315;-43
2023/03/18 02:51:36;;;;;;;16.00;6.30;;;;;;;2.69;57.88;99246.95;107681;1310;22330;-42
2023/03/18 02:54:10;;;;;;;15.10;6.60;;;;;;;2.69;57.83;99247.13;107709;1310;22253;-42
2023/03/18 02:56:37;;;;;;;15.30;6.70;;;;;;;2.68;57.86;99249.73;107602;1307;141669;-42
2023/03/18 02:59:03;;;;;;;11.70;6.20;;;;;;;2.67;57.69;99248.89;107945;1307;22600;-42
2023/03/18 03:01:31;;;;;;;13.00;5.70;;;;;;;2.67;57.97;99244.90;107975;1307;23250;-42
2023/03/18 03:03:56;;;;;;;13.20;5.80;;;;;;;2.62;57.84;99246.40;107974;1307;22219;-42
2023/03/18 03:06:22;;;;;;;13.10;6.20;;;;;;;2.58;58.20;99244.42;107958;1307;22902;-42
2023/03/18 03:08:47;;;;;;;13.50;5.90;;;;;;;2.58;58.01;99245.30;107987;1307;22233;-42
2023/03/18 03:11:13;;;;;;;17.10;6.00;;;;;;;2.57;57.92;99242.20;107921;1307;22322;-42
2023/03/18 03:13:40;;;;;;;14.90;5.80;;;;;;;2.56;58.18;99244.83;107941;1307;22231;-42
2023/03/18 03:16:06;;;;;;;13.10;6.40;;;;;;;2.56;57.99;99247.94;107981;1307;22269;-42
2023/03/18 03:18:34;;;;;;;13.70;6.20;;;;;;;2.56;58.09;99251.75;107951;1307;22495;-42
2023/03/18 03:21:00;;;;;;;14.20;5.80;;;;;;;2.54;58.45;99253.70;107964;1307;22400;-42
2023/03/18 03:23:26;;;;;;;11.00;6.50;;;;;;;2.50;58.36;99250.83;107956;1307;22259;-42
2023/03/18 03:25:51;;;;;;;15.00;5.90;;;;;;;2.50;58.47;99249.10;107966;1307;22437;-42
2023/03/18 03:28:16;;;;;;;13.30;6.60;;;;;;;2.49;58.36;99245.69;107929;1307;22255;-43
2023/03/18 03:30:42;;;;;;;13.10;6.60;;;;;;;2.46;58.56;99245.06;107951;1307;22310;-43
2023/03/18 03:33:08;;;;;;;10.80;5.60;;;;;;;2.44;58.60;99247.35;107953;1307;22387;-43
2023/03/18 03:35:34;;;;;;;11.60;5.80;;;;;;;2.41;58.80;99247.23;107963;1307;22294;-43
2023/03/18 03:38:00;;;;;;;11.20;6.30;;;;;;;2.40;58.89;99248.48;107955;1307;22230;-43
2023/03/18 03:40:26;;;;;;;20.30;6.50;;;;;;;2.39;58.83;99253.87;107956;1307;22379;-43
2023/03/18 03:42:52;;;;;;;10.10;6.00;;;;;;;2.37;59.01;99254.60;107931;1307;22249;-43
2023/03/18 03:45:18;;;;;;;13.00;6.00;;;;;;;2.40;58.90;99254.35;107953;1307;22386;-43
2023/03/18 03:47:45;;;;;;;14.20;5.90;;;;;;;2.39;59.06;99253.67;107955;1307;23021;-43
2023/03/18 03:50:11;;;;;;;15.40;6.70;;;;;;;2.41;58.85;99250.89;107990;1307;23160;-43
2023/03/18 03:52:37;;;;;;;17.00;6.70;;;;;;;2.35;58.95;99250.32;107971;1307;22427;-43
2023/03/18 03:55:05;;;;;;;13.40;6.40;;;;;;;2.33;58.93;99252.63;107918;1307;22426;-43
2023/03/18 03:57:30;;;;;;;13.10;6.20;;;;;;;2.32;59.16;99247.79;107891;1307;23079;-43
2023/03/18 03:59:55;;;;;;;14.60;6.70;;;;;;;2.32;59.22;99242.26;107908;1307;23235;-43
2023/03/18 04:02:22;;;;;;;13.80;6.20;;;;;;;2.31;59.20;99236.05;107904;1307;23164;-43
2023/03/18 04:04:49;;;;;;;14.10;6.40;;;;;;;2.23;59.28;99238.30;107915;1307;23040;-43
2023/03/18 04:07:14;;;;;;;17.00;7.10;;;;;;;2.23;59.42;99239.52;107911;1307;22229;-43
2023/03/18 04:09:40;;;;;;;15.50;6.50;;;;;;;2.22;59.57;99238.84;107918;1308;22426;-41
2023/03/18 04:12:06;;;;;;;19.60;9.40;;;;;;;2.22;59.45;99237.10;107924;1307;22219;-41
2023/03/18 04:14:32;;;;;;;15.60;6.90;;;;;;;2.21;59.51;99245.09;107911;1307;22413;-41
2023/03/18 04:16:59;;;;;;;16.00;7.00;;;;;;;2.24;59.52;99248.49;107940;1307;22940;-41
2023/03/18 04:19:26;;;;;;;20.90;6.70;;;;;;;2.24;59.75;99250.40;107910;1308;22461;-42
2023/03/18 04:21:52;;;;;;;12.90;6.20;;;;;;;2.23;59.56;99250.27;107904;1308;22390;-42
2023/03/18 04:24:18;;;;;;;19.90;7.40;;;;;;;2.19;59.73;99249.64;107897;1308;22470;-41
2023/03/18 04:26:43;;;;;;;15.60;6.80;;;;;;;2.17;60.02;99251.06;107914;1308;22411;-42
2023/03/18 04:29:08;;;;;;;14.80;6.40;;;;;;;2.16;59.64;99254.90;107895;1308;22415;-41
2023/03/18 04:31:34;;;;;;;16.70;6.20;;;;;;;2.16;59.96;99252.98;107905;1308;22412;-41
2023/03/18 04:33:59;;;;;;;19.30;7.20;;;;;;;2.17;59.74;99255.38;107920;1308;22253;-41
2023/03/18 04:36:25;;;;;;;17.50;6.60;;;;;;;2.16;59.87;99259.21;107898;1308;22911;-41
2023/03/18 04:38:50;;;;;;;15.10;6.40;;;;;;;2.14;60.16;99263.77;107890;1308;22389;-42
2023/03/18 04:41:16;;;;;;;14.40;6.60;;;;;;;2.13;60.22;99263.95;107884;1308;22378;-41
2023/03/18 04:43:43;;;;;;;14.60;6.90;;;;;;;2.11;60.06;99262.95;107876;1307;23011;-41
2023/03/18 04:46:09;;;;;;;16.70;6.70;;;;;;;2.08;60.37;99264.39;107877;1308;22432;-46
2023/03/18 04:48:35;;;;;;;17.50;7.10;;;;;;;2.11;60.31;99263.98;107872;1308;22901;-42
2023/03/18 04:51:01;;;;;;;12.80;6.40;;;;;;;2.08;60.34;99263.52;107881;1308;22322;-42
2023/03/18 04:53:26;;;;;;;13.90;6.70;;;;;;;2.07;60.43;99261.83;107914;1308;22272;-42
2023/03/18 04:55:51;;;;;;;13.90;6.40;;;;;;;2.06;60.13;99263.40;107918;1308;22340;-43
2023/03/18 04:58:17;;;;;;;13.40;7.10;;;;;;;2.06;60.23;99260.80;107882;1307;22957;-43
2023/03/18 05:00:42;;;;;;;16.70;7.60;;;;;;;2.06;60.49;99262.20;107961;1307;22325;-42
2023/03/18 05:03:08;;;;;;;18.50;7.70;;;;;;;2.03;60.49;99255.52;107955;1307;23233;-42
2023/03/18 05:05:34;;;;;;;20.40;8.50;;;;;;;2.04;60.85;99257.38;107976;1307;22264;-41
2023/03/18 05:07:59;;;;;;;16.00;8.10;;;;;;;2.04;60.74;99258.09;107937;1307;22478;-42
2023/03/18 05:10:24;;;;;;;15.20;7.10;;;;;;;2.05;60.70;99262.39;107966;1307;22261;-42
2023/03/18 05:12:50;;;;;;;16.10;8.20;;;;;;;1.98;60.77;99263.22;107967;1307;22222;-42
2023/03/18 05:15:16;;;;;;;18.60;8.00;;;;;;;1.99;60.87;99265.27;107954;1307;22402;-42
2023/03/18 05:17:41;;;;;;;19.60;8.40;;;;;;;2.04;60.66;99266.56;107951;1307;22923;-42
2023/03/18 05:20:09;;;;;;;21.70;9.00;;;;;;;1.99;60.59;99266.66;107950;1307;23599;-42
2023/03/18 05:22:34;;;;;;;;;;;;;;;2.00;60.76;99268.36;107993;1307;22476;-42
2023/03/18 05:25:00;;;;;;;20.90;8.90;;;;;;;2.04;60.46;99261.55;107946;1307;22329;-41
2023/03/18 05:27:27;;;;;;;22.40;8.20;;;;;;;2.06;60.46;99263.05;107975;1307;22397;-42
2023/03/18 05:29:52;;;;;;;20.10;8.00;;;;;;;2.08;60.25;99265.77;107976;1307;22257;-42
2023/03/18 05:32:18;;;;;;;18.50;8.20;;;;;;;2.05;60.30;99271.56;107977;1307;22395;-42
2023/03/18 05:34:43;;;;;;;15.10;7.10;;;;;;;2.05;60.54;99271.57;107970;1307;22916;-42
2023/03/18 05:37:11;;;;;;;15.60;6.70;;;;;;;2.07;60.40;99273.59;107945;1307;22458;-42
2023/03/18 05:39:37;;;;;;;21.30;7.70;;;;;;;2.01;60.49;99277.87;107954;1307;22397;-42
2023/03/18 05:42:03;;;;;;;25.40;8.00;;;;;;;2.04;60.43;99281.95;107981;1307;22451;-42
2023/03/18 05:44:29;;;;;;;15.00;6.40;;;;;;;2.05;60.35;99282.79;107976;1307;22404;-42
2023/03/18 05:46:54;;;;;;;15.70;6.80;;;;;;;2.10;60.32;99282.17;107968;1307;22231;-42
2023/03/18 05:49:22;;;;;;;19.80;7.90;;;;;;;2.13;60.16;99283.15;107967;1307;22205;-42
2023/03/18 05:51:48;;;;;;;22.10;8.00;;;;;;;2.14;60.06;99281.92;107967;1307;22445;-42
2023/03/18 05:54:15;;;;;;;20.80;7.90;;;;;;;2.13;59.88;99283.30;107965;1307;22240;-42
2023/03/18 05:56:42;;;;;;;19.10;7.50;;;;;;;2.17;59.88;99286.87;107950;1307;22225;-42
2023/03/18 05:59:08;;;;;;;19.20;7.60;;;;;;;2.21;59.66;99288.35;107972;1307;22406;-42
2023/03/18 06:01:36;;;;;;;21.90;6.80;;;;;;;2.21;59.60;99288.52;107964;1307;22257;-42
2023/03/18 06:04:04;;;;;;;16.60;7.40;;;;;;;2.25;59.50;99289.98;107965;1307;22772;-42
2023/03/18 06:06:30;;;;;;;15.00;7.00;;;;;;;2.26;59.68;99291.85;107962;1307;22450;-42
2023/03/18 06:08:55;;;;;;;17.60;7.90;;;;;;;2.31;59.45;99296.08;107968;1307;22409;-45
2023/03/18 06:11:22;;;;;;;17.60;7.80;;;;;;;2.39;59.15;99295.73;107986;1307;22472;-43
2023/03/18 06:13:48;;;;;;;13.40;6.80;;;;;;;2.39;59.08;99297.98;107990;1307;22225;-43
2023/03/18 06:16:14;;;;;;;14.80;7.20;;;;;;;2.45;59.05;99293.52;107978;1307;22237;-42
2023/03/18 06:18:39;;;;;;;14.40;6.90;;;;;;;2.48;58.87;99293.64;107982;1307;22248;-42
2023/03/18 06:21:08;;;;;;;20.10;7.30;;;;;;;2.50;58.33;99292.73;107966;1307;23412;-42
2023/03/18 06:23:34;;;;;;;12.50;6.40;;;;;;;2.51;58.36;99291.51;107988;1307;22291;-42
2023/03/18 06:26:00;;;;;;;14.10;6.90;;;;;;;2.55;58.33;99291.74;107987;1307;22247;-43
2023/03/18 06:28:26;;;;;;;17.70;7.70;;;;;;;2.61;58.11;99291.96;107991;1307;22180;-42
2023/03/18 06:30:55;;;;;;;15.50;7.80;;;;;;;2.63;58.00;99290.86;107984;1307;23542;-43
2023/03/18 06:33:20;;;;;;;13.10;6.90;;;;;;;2.63;57.71;99296.91;107983;1307;23167;-43
2023/03/18 06:35:48;;;;;;;15.30;6.50;;;;;;;2.62;57.69;99297.30;107956;1307;22345;-43
2023/03/18 06:38:15;;;;;;;15.40;7.30;;;;;;;2.66;57.62;99299.45;107997;1307;22246;-43
2023/03/18 06:40:41;;;;;;;16.40;7.20;;;;;;;2.68;57.49;99302.70;107983;1307;23736;-43
2023/03/18 06:43:06;;;;;;;19.70;7.70;;;;;;;2.67;57.29;99302.02;107996;1307;22224;-43
2023/03/18 06:45:31;;;;;;;21.50;7.50;;;;;;;2.74;57.46;99304.30;107945;1307;22210;-43
2023/03/18 06:47:56;;;;;;;17.60;7.70;;;;;;;2.82;57.38;99305.34;107975;1307;22457;-43
2023/03/18 06:50:23;;;;;;;16.70;6.80;;;;;;;2.85;57.24;99306.47;107992;1307;22242;-43
2023/03/18 06:52:48;;;;;;;15.10;7.20;;;;;;;2.82;57.15;99307.58;107986;1307;22462;-42
2023/03/18 06:55:14;;;;;;;15.00;6.90;;;;;;;2.86;57.20;99311.80;107971;1307;23221;-43
2023/03/18 06:57:40;;;;;;;13.20;7.10;;;;;;;2.90;56.92;99313.28;107986;1307;22363;-43
2023/03/18 07:00:07;;;;;;;16.00;7.20;;;;;;;2.90;56.78;99316.04;107979;1307;22214;-43
2023/03/18 07:02:33;;;;;;;17.40;7.40;;;;;;;2.93;56.74;99316.85;107974;1307;22473;-42
2023/03/18 07:04:59;;;;;;;19.90;8.90;;;;;;;2.90;56.53;99315.52;107995;1307;22421;-42
2023/03/18 07:07:24;;;;;;;17.20;8.80;;;;;;;2.95;56.64;99314.19;107993;1307;22407;-42
2023/03/18 07:09:49;;;;;;;21.20;9.30;;;;;;;3.03;56.51;99312.27;107987;1307;23410;-42
2023/03/18 07:12:15;;;;;;;21.10;8.70;;;;;;;3.05;56.24;99315.17;107952;1307;22927;-42
2023/03/18 07:14:40;;;;;;;21.70;8.70;;;;;;;3.08;56.31;99317.52;107985;1307;22447;-42
2023/03/18 07:17:06;;;;;;;15.20;7.10;;;;;;;3.17;56.05;99319.54;107977;1307;23028;-42
2023/03/18 07:19:32;;;;;;;20.90;9.00;;;;;;;3.20;55.83;99319.32;107998;1307;22161;-43
2023/03/18 07:21:58;;;;;;;21.50;10.80;;;;;;;3.25;55.87;99316.77;107975;1307;22266;-43
2023/03/18 07:24:25;;;;;;;17.00;9.00;;;;;;;3.31;55.48;99315.39;108000;1307;22373;-43
2023/03/18 07:26:51;;;;;;;22.60;9.50;;;;;;;3.33;55.21;99318.27;107991;1307;22280;-42
2023/03/18 07:29:17;;;;;;;20.00;8.20;;;;;;;3.40;55.23;99314.13;107981;1307;22232;-43
2023/03/18 07:31:43;;;;;;;18.30;7.90;;;;;;;3.48;55.18;99314.27;107991;1307;22279;-43
2023/03/18 07:34:09;;;;;;;19.10;8.20;;;;;;;3.53;54.85;99311.01;108002;1307;22241;-43
2023/03/18 07:36:35;;;;;;;20.60;7.30;;;;;;;3.60;54.65;99311.02;108004;1307;23077;-43
2023/03/18 07:39:02;;;;;;;20.30;8.20;;;;;;;3.71;54.63;99315.40;107985;1307;22274;-43
2023/03/18 07:41:28;;;;;;;18.70;7.40;;;;;;;3.77;54.42;99315.05;107976;1307;22614;-42
2023/03/18 07:43:54;;;;;;;17.40;7.30;;;;;;;3.85;54.30;99312.40;108006;1307;22200;-45
2023/03/18 07:46:20;;;;;;;15.80;7.20;;;;;;;3.93;54.43;99313.75;108005;1307;22233;-40
2023/03/18 07:48:45;;;;;;;20.20;7.70;;;;;;;4.02;54.32;99310.55;108007;1307;22401;-44
2023/03/18 07:51:11;;;;;;;17.60;7.90;;;;;;;4.10;53.57;99304.61;107994;1307;22230;-41
2023/03/18 07:53:37;;;;;;;18.10;7.40;;;;;;;4.13;53.29;99297.58;107986;1307;22243;-42
2023/03/18 07:56:03;;;;;;;20.60;8.20;;;;;;;4.21;53.12;99296.48;107789;1305;23068;-42
2023/03/18 07:58:28;;;;;;;18.50;8.30;;;;;;;4.28;53.14;99297.84;108051;1306;22318;-42
2023/03/18 08:00:53;;;;;;;15.70;7.40;;;;;;;4.36;53.03;99293.25;108021;1299;22253;-42
2023/03/18 08:03:19;;;;;;;36.10;11.30;;;;;;;4.50;52.91;99289.73;107997;1307;22273;-42
2023/03/18 08:05:44;;;;;;;20.40;7.60;;;;;;;4.62;52.20;99282.21;108022;1307;22337;-42
2023/03/18 08:08:09;;;;;;;21.80;8.50;;;;;;;4.84;51.98;99284.83;108001;1307;22244;-42
2023/03/18 08:10:35;;;;;;;23.10;8.50;;;;;;;5.01;51.35;99286.05;107980;1307;22736;-42
2023/03/18 08:13:01;;;;;;;20.20;8.30;;;;;;;5.17;50.98;99280.64;108009;1307;22242;-43
2023/03/18 08:15:27;;;;;;;22.40;9.60;;;;;;;5.27;50.47;99282.20;108006;1307;22404;-44
2023/03/18 08:17:52;;;;;;;28.70;12.70;;;;;;;5.42;50.62;99281.88;107996;1307;22233;-42
2023/03/18 08:20:19;;;;;;;30.90;13.60;;;;;;;5.48;49.84;99283.95;108008;1307;22233;-42
2023/03/18 08:22:44;;;;;;;27.10;12.90;;;;;;;5.57;49.81;99284.32;108007;1307;22368;-45
2023/03/18 08:25:10;;;;;;;29.30;11.70;;;;;;;5.69;49.66;99285.11;108001;1307;22475;-42
2023/03/18 08:27:35;;;;;;;33.80;13.60;;;;;;;5.77;49.52;99285.71;108049;1307;22297;-43
2023/03/18 08:30:01;;;;;;;23.90;11.40;;;;;;;5.96;49.88;99275.27;108012;1302;22461;-43
2023/03/18 08:32:26;;;;;;;23.30;11.30;;;;;;;6.11;49.03;99274.39;108011;1284;23854;-42
2023/03/18 08:34:52;;;;;;;22.60;10.40;;;;;;;6.30;48.96;99271.77;108022;1304;22892;-43
2023/03/18 08:37:18;;;;;;;20.20;10.40;;;;;;;6.52;48.79;99267.45;108002;1307;22452;-43
2023/03/18 08:39:43;;;;;;;19.00;9.30;;;;;;;6.76;48.20;99271.21;108023;1307;22271;-43
2023/03/18 08:42:09;;;;;;;21.70;8.60;;;;;;;6.98;47.31;99270.65;107990;1307;22238;-45
2023/03/18 08:44:35;;;;;;;24.20;8.50;;;;;;;7.23;47.02;99268.92;107995;1307;22394;-44
2023/03/18 08:47:00;;;;;;;19.30;8.20;;;;;;;7.43;46.37;99272.30;108009;1307;22233;-44
2023/03/18 08:49:26;;;;;;;25.50;9.50;;;;;;;7.66;45.52;99273.91;107995;1307;22269;-44
2023/03/18 08:51:52;;;;;;;24.00;9.80;;;;;;;7.93;45.69;99277.80;108016;1307;22211;-43
2023/03/18 08:54:18;;;;;;;20.90;9.60;;;;;;;8.19;45.28;99278.02;107997;1307;22250;-44
2023/03/18 08:56:43;;;;;;;27.30;9.10;;;;;;;8.43;44.91;99278.84;107993;1307;22895;-44
2023/03/18 08:59:09;;;;;;;20.20;8.70;;;;;;;8.62;44.43;99275.18;108009;1307;22957;-43
2023/03/18 09:01:35;;;;;;;19.00;7.80;;;;;;;8.71;43.55;99277.19;108003;1307;22962;-42
2023/03/18 09:04:01;;;;;;;19.00;9.00;;;;;;;8.76;43.23;99277.98;108018;1307;23431;-43
2023/03/18 09:06:32;;;;;;;17.20;8.30;;;;;;;9.00;42.67;99275.11;107734;1307;22408;-43
2023/03/18 09:08:57;;;;;;;18.10;8.20;;;;;;;9.40;42.75;99268.58;108000;1307;22216;-46
2023/03/18 09:11:23;;;;;;;19.30;9.40;;;;;;;9.63;41.53;99268.98;108000;1307;22298;-45
2023/03/18 09:13:49;;;;;;;23.50;8.20;;;;;;;9.78;40.78;99262.77;108012;1307;23328;-45
2023/03/18 09:16:14;;;;;;;20.20;8.50;;;;;;;10.02;41.30;99261.32;107998;1307;23369;-45
2023/03/18 09:18:40;;;;;;;16.00;8.70;;;;;;;10.24;41.49;99263.80;108007;1307;22254;-45
2023/03/18 09:21:05;;;;;;;18.80;8.30;;;;;;;10.62;39.95;99257.72;108022;1307;23079;-46
2023/03/18 09:23:31;;;;;;;21.90;8.40;;;;;;;11.08;39.14;99255.09;107973;1295;22248;-46
2023/03/18 09:25:58;;;;;;;15.90;7.90;;;;;;;11.53;37.50;99255.66;108004;1307;22234;-45
2023/03/18 09:28:24;;;;;;;18.90;8.60;;;;;;;12.00;36.48;99259.86;108015;1307;22299;-45
2023/03/18 09:30:50;;;;;;;17.90;8.90;;;;;;;12.48;37.70;99257.05;108026;1307;22223;-43
2023/03/18 09:33:16;;;;;;;26.80;8.50;;;;;;;12.70;36.13;99256.52;108031;1307;22246;-46
2023/03/18 09:35:41;;;;;;;14.50;7.30;;;;;;;12.71;35.49;99255.91;108012;1307;22235;-45
2023/03/18 09:38:09;;;;;;;15.40;8.10;;;;;;;12.50;34.66;99246.35;108006;1307;22283;-47
2023/03/18 09:40:36;;;;;;;;;;;;;;;12.34;35.92;99244.38;108032;1307;22570;-45
2023/03/18 09:43:02;;;;;;;;;;;;;;;12.12;35.81;99248.90;108025;1307;23193;-46
2023/03/18 09:45:45;;;;;;;18.40;8.00;;;;;;;11.96;36.19;99244.09;108027;1307;23318;-46
2023/03/18 09:48:38;;;;;;;21.30;7.60;;;;;;;11.87;35.91;99241.48;107996;1307;22292;-45
2023/03/18 09:51:44;;;;;;;24.60;7.70;;;;;;;11.64;35.56;99237.95;108028;1307;22389;-46
2023/03/18 09:54:16;;;;;;;14.00;6.90;;;;;;;11.56;36.31;99238.61;107997;1307;23172;-44
2023/03/18 09:56:43;;;;;;;23.30;7.90;;;;;;;11.48;36.04;99243.67;108004;1307;23202;-45
2023/03/18 09:59:28;;;;;;;13.60;6.80;;;;;;;11.40;36.26;99241.66;107720;1307;23037;-43
2023/03/18 10:01:56;;;;;;;18.50;7.30;;;;;;;11.35;36.88;99241.42;108022;1307;22252;-45
2023/03/18 10:04:42;;;;;;;14.70;8.00;;;;;;;11.24;35.99;99239.27;108004;1307;22266;-45
2023/03/18 10:07:20;;;;;;;15.10;8.60;;;;;;;11.31;36.36;99238.00;107999;1307;22250;-45
2023/03/18 10:10:01;;;;;;;15.20;7.60;;;;;;;11.41;36.33;99233.02;107993;1307;22250;-44
2023/03/18 10:12:27;;;;;;;19.20;10.20;;;;;;;11.46;35.83;99233.77;108015;1307;22205;-45
2023/03/18 10:15:21;;;;;;;11.60;7.30;;;;;;;11.51;35.61;99232.61;107971;1307;22407;-44
2023/03/18 10:17:54;;;;;;;13.40;6.60;;;;;;;11.57;35.46;99230.64;107915;1307;22303;-44
2023/03/18 10:20:49;;;;;;;19.70;8.10;;;;;;;11.62;34.79;99230.49;108030;1307;22274;-45
2023/03/18 10:23:37;;;;;;;18.60;6.30;;;;;;;11.61;34.37;99227.59;107995;1307;22214;-48
2023/03/18 10:26:16;;;;;;;20.00;7.20;;;;;;;11.63;33.19;99229.42;107976;1307;22329;-43
2023/03/18 10:29:00;;;;;;;12.00;5.40;;;;;;;11.73;33.95;99223.21;108010;1307;22990;-43
2023/03/18 10:31:46;;;;;;;12.00;6.20;;;;;;;11.78;33.76;99225.52;108019;1307;23611;-43
2023/03/18 10:34:21;;;;;;;15.30;6.60;;;;;;;11.89;34.45;99222.23;108007;1307;22453;-43
2023/03/18 10:36:54;;;;;;;19.40;8.40;;;;;;;11.93;33.48;99225.55;108000;1307;22259;-43
2023/03/18 10:39:25;;;;;;;19.10;7.70;;;;;;;11.97;33.96;99223.84;107963;1307;22239;-43
2023/03/18 10:41:52;;;;;;;13.40;6.80;;;;;;;12.09;34.22;99216.42;107995;1307;22403;-44
2023/03/18 10:44:37;;;;;;;16.50;8.70;;;;;;;12.12;33.37;99213.79;108019;1307;22230;-45
2023/03/18 10:47:14;;;;;;;13.70;7.00;;;;;;;12.23;33.59;99214.88;108021;1293;22248;-44
2023/03/18 10:49:44;;;;;;;15.30;8.10;;;;;;;12.30;34.36;99207.00;108007;1307;22393;-45
2023/03/18 10:52:33;;;;;;;16.40;9.50;;;;;;;12.35;33.62;99210.43;108011;1307;22316;-44
2023/03/18 10:54:59;;;;;;;23.50;10.80;;;;;;;12.46;34.30;99211.83;108006;1307;22215;-44
2023/03/18 10:57:24;;;;;;;17.20;8.00;;;;;;;12.52;32.93;99211.23;108001;1307;22905;-44
2023/03/18 10:59:51;;;;;;;20.40;9.50;;;;;;;12.59;33.24;99211.16;108015;1307;22227;-45
2023/03/18 11:02:21;;;;;;;16.30;9.00;;;;;;;12.59;32.36;99209.23;108015;1307;22452;-48
2023/03/18 11:04:50;;;;;;;15.00;7.50;;;;;;;12.67;32.93;99208.88;108014;1307;22166;-45
2023/03/18 11:07:24;;;;;;;14.80;7.00;;;;;;;12.79;32.67;99205.64;107980;1307;22205;-46
2023/03/18 11:09:51;;;;;;;16.30;7.00;;;;;;;12.98;32.19;99201.70;108011;1307;22229;-45
2023/03/18 11:12:24;;;;;;;9.70;5.80;;;;;;;13.16;32.30;99199.86;108028;1307;22247;-45
2023/03/18 11:14:52;;;;;;;20.90;6.70;;;;;;;13.25;31.63;99202.20;107996;1295;22334;-45
2023/03/18 11:17:39;;;;;;;14.50;6.60;;;;;;;13.40;31.16;99199.48;108017;1306;22215;-46
2023/03/18 11:20:27;;;;;;;;;;;;;;;13.51;30.65;99191.19;108012;1302;22399;-41
2023/03/18 11:22:56;;;;;;;12.40;6.90;;;;;;;13.65;30.70;99189.80;107890;1307;22467;-46
2023/03/18 11:25:25;;;;;;;16.20;6.40;;;;;;;14.07;29.99;99190.91;107986;1299;22407;-44
2023/03/18 11:28:26;;;;;;;18.10;6.40;;;;;;;14.80;28.97;99187.63;108020;1302;22280;-44
2023/03/18 11:30:56;;;;;;;19.80;6.90;;;;;;;15.92;29.86;99186.99;107989;1306;22564;-44
2023/03/18 11:33:30;;;;;;;15.80;6.20;;;;;;;16.76;27.52;99181.84;107850;1306;22338;-43